This is the latest recevied weather packets stored in our database for station/object SV9TNF-51. If no packets are shown the sender has not sent any weather packets the latest 10 day(s).
| Time | Temp. | Humidity | Pressure | Rain* | Wind** | Luminosity | Snow |
|---|---|---|---|---|---|---|---|
| 1788604961 | 32.22° C | 42% | 1014.2 hPa | 0 mm | 17.43 m/s, 307° | - | - |
| 1788604660 | 33.33° C | 39% | 1014.2 hPa | 0 mm | 2.68 m/s, 319° | - | - |
| 1788604382 | 33.33° C | 40% | 1014.2 hPa | 0 mm | 1.79 m/s, 139° | - | - |
| 1788604060 | 32.78° C | 41% | 1014.2 hPa | 0 mm | 8.94 m/s, 342° | - | - |
| 1788603760 | 32.78° C | 42% | 1014.2 hPa | 0 mm | 3.58 m/s, 131° | - | - |
| 1788603460 | 32.22° C | 42% | 1014.2 hPa | 0 mm | 5.81 m/s, 359° | - | - |
| 1788603160 | 32.78° C | 41% | 1014.2 hPa | 0 mm | 7.15 m/s, 351° | - | - |
| 1788602860 | 32.22° C | 41% | 1014.2 hPa | 0 mm | 2.68 m/s, 149° | - | - |
| 1788602560 | 32.78° C | 38% | 1014.2 hPa | 0 mm | 6.26 m/s, 124° | - | - |
| 1788602260 | 32.78° C | 39% | 1014.6 hPa | 0 mm | 1.79 m/s, 329° | - | - |
| 1788601960 | 31.67° C | 41% | 1014.6 hPa | 0 mm | 14.75 m/s, 343° | - | - |
| 1788601659 | 33.33° C | 37% | 1014.6 hPa | 0 mm | 1.79 m/s, 235° | - | - |
| 1788601359 | 32.22° C | 40% | 1014.6 hPa | 0 mm | 8.05 m/s, 333° | - | - |
| 1788601059 | 31.67° C | 41% | 1014.6 hPa | 0 mm | 8.05 m/s, 187° | - | - |
| 1788600759 | 32.78° C | 41% | 1014.6 hPa | 0 mm | 15.2 m/s, 330° | - | - |
| 1788600459 | 31.67° C | 41% | 1014.6 hPa | 0 mm | 13.86 m/s, 336° | - | - |
| 1788600159 | 32.22° C | 42% | 1014.6 hPa | 0 mm | 5.81 m/s, 64° | - | - |
| 1788599859 | 31.67° C | 41% | 1014.6 hPa | 0 mm | 5.81 m/s, 304° | - | - |
| 1788599559 | 31.67° C | 43% | 1014.6 hPa | 0 mm | 9.83 m/s, 331° | - | - |
| 1788599259 | 31.67° C | 43% | 1014.6 hPa | 0 mm | 8.94 m/s, 258° | - | - |
| 1788598959 | 32.78° C | 42% | 1014.6 hPa | 0 mm | 2.24 m/s, 127° | - | - |
| 1788598658 | 32.22° C | 42% | 1014.6 hPa | 0 mm | 5.81 m/s, 346° | - | - |
| 1788598358 | 32.78° C | 42% | 1014.6 hPa | 0 mm | 1.34 m/s, 130° | - | - |
| 1788598076 | 32.22° C | 42% | 1014.6 hPa | 0 mm | 4.92 m/s, 131° | - | - |
| 1788597758 | 31.67° C | 43% | 1014.6 hPa | 0 mm | 13.41 m/s, 328° | - | - |
* Rain latest hour (hover to see other rain measurements)
** Current wind speed in m/s (hover to see current wind gust speed)